Time;durP1;ratioP1;P1;durP2;ratioP2;P2;SDS_P1;SDS_P2;PMS_P1;PMS_P2;Temp;Humidity;BMP_temperature;BMP_pressure;BME280_temperature;BME280_humidity;BME280_pressure;Samples;Min_cycle;Max_cycle;Signal;HPM_P1;HPM_P2
2022/04/05 00:00:13;;;;;;;5.28;3.20;;;16.80;62.00;;;;;;5025474;28;20096;-69
2022/04/05 00:02:39;;;;;;;4.57;2.92;;;16.80;62.00;;;;;;5030942;28;20022;-69
2022/04/05 00:05:05;;;;;;;6.68;2.90;;;16.80;62.00;;;;;;5032694;28;20083;-69
2022/04/05 00:07:31;;;;;;;6.60;3.10;;;16.80;62.00;;;;;;5032883;28;20088;-69
2022/04/05 00:09:56;;;;;;;4.85;2.97;;;16.80;62.10;;;;;;5032698;28;20547;-69
2022/04/05 00:12:23;;;;;;;3.28;2.50;;;16.80;62.10;;;;;;5017387;28;20105;-69
2022/04/05 00:14:49;;;;;;;4.25;2.85;;;16.80;62.10;;;;;;5011721;28;20108;-69
2022/04/05 00:17:14;;;;;;;3.85;2.92;;;16.80;62.10;;;;;;5012484;28;20100;-69
2022/04/05 00:19:40;;;;;;;3.28;2.78;;;16.80;62.10;;;;;;5011408;28;20067;-70
2022/04/05 00:22:06;;;;;;;5.53;2.90;;;16.80;62.10;;;;;;5012524;28;20030;-69
2022/04/05 00:24:31;;;;;;;4.18;2.60;;;16.80;62.20;;;;;;5012968;28;20033;-69
2022/04/05 00:26:57;;;;;;;2.58;2.38;;;16.80;62.20;;;;;;5012679;28;20034;-70
2022/04/05 00:29:23;;;;;;;4.93;2.83;;;16.80;62.20;;;;;;5011576;28;20030;-70
2022/04/05 00:31:50;;;;;;;6.10;2.65;;;16.70;62.20;;;;;;5012227;28;20034;-69
2022/04/05 00:34:15;;;;;;;3.60;2.75;;;16.70;62.20;;;;;;5012608;28;20527;-69
2022/04/05 00:36:41;;;;;;;3.53;2.50;;;16.80;62.20;;;;;;5012524;28;20026;-69
2022/04/05 00:39:07;;;;;;;4.28;2.72;;;16.70;62.20;;;;;;5012701;28;20026;-69
2022/04/05 00:41:32;;;;;;;4.72;2.83;;;16.70;62.20;;;;;;5011257;28;20500;-69
2022/04/05 00:43:58;;;;;;;4.63;2.80;;;16.70;62.20;;;;;;5012413;28;20025;-69
2022/04/05 00:46:24;;;;;;;3.92;2.70;;;16.70;62.30;;;;;;5010823;28;20412;-69
2022/04/05 00:48:52;;;;;;;4.95;3.10;;;16.70;62.20;;;;;;5012514;28;20030;-69
2022/04/05 00:51:18;;;;;;;2.90;2.47;;;16.70;62.30;;;;;;5011322;28;20120;-69
2022/04/05 00:53:46;;;;;;;2.75;2.50;;;16.70;62.30;;;;;;5012519;28;20021;-69
2022/04/05 00:56:15;;;;;;;6.22;2.92;;;16.70;62.30;;;;;;5011330;28;20025;-69
2022/04/05 00:58:42;;;;;;;3.35;2.22;;;16.70;62.30;;;;;;5013059;28;20488;-69
2022/04/05 01:01:09;;;;;;;5.07;2.47;;;16.70;62.40;;;;;;5030799;28;20033;-69
2022/04/05 01:03:35;;;;;;;3.15;2.70;;;16.70;62.30;;;;;;5030865;28;20025;-69
2022/04/05 01:06:00;;;;;;;6.05;2.55;;;16.70;62.30;;;;;;5030792;28;20029;-69
2022/04/05 01:08:26;;;;;;;4.63;2.80;;;16.70;62.40;;;;;;5030862;28;20060;-69
2022/04/05 01:10:52;;;;;;;4.13;2.63;;;16.70;62.40;;;;;;5028319;28;20033;-69
2022/04/05 01:13:18;;;;;;;3.70;2.40;;;16.70;62.50;;;;;;5015087;28;20415;-69
2022/04/05 01:15:44;;;;;;;3.05;2.30;;;16.70;63.50;;;;;;5015801;28;20021;-69
2022/04/05 01:18:09;;;;;;;3.25;2.33;;;16.70;62.40;;;;;;5014921;28;20024;-69
2022/04/05 01:20:35;;;;;;;3.45;2.30;;;16.70;62.50;;;;;;5025301;28;20060;-69
2022/04/05 01:23:01;;;;;;;3.17;2.38;;;16.70;62.40;;;;;;5035419;28;20036;-69
2022/04/05 01:25:26;;;;;;;3.65;2.50;;;16.70;62.50;;;;;;5034402;28;20033;-70
2022/04/05 01:27:52;;;;;;;4.95;2.63;;;16.60;62.50;;;;;;5035651;28;20427;-69
2022/04/05 01:30:18;;;;;;;3.47;2.30;;;16.70;62.50;;;;;;5034141;28;20092;-69
2022/04/05 01:32:43;;;;;;;4.68;2.50;;;16.60;62.40;;;;;;5035130;28;20033;-70
2022/04/05 01:35:14;;;;;;;3.22;2.40;;;16.60;62.50;;;;;;5035387;28;20025;-70
2022/04/05 01:37:39;;;;;;;4.72;2.70;;;16.60;62.50;;;;;;5035585;28;20026;-70
2022/04/05 01:40:05;;;;;;;3.63;2.30;;;16.70;62.50;;;;;;5034504;28;20067;-70
2022/04/05 01:42:33;;;;;;;4.10;2.47;;;16.60;62.50;;;;;;5035514;28;20037;-69
2022/04/05 01:44:59;;;;;;;2.92;2.35;;;16.70;62.60;;;;;;5034835;28;20041;-70
2022/04/05 01:47:25;;;;;;;3.13;2.40;;;16.60;62.60;;;;;;5035203;28;20026;-70
2022/04/05 01:49:50;;;;;;;3.55;2.22;;;16.60;62.60;;;;;;5035217;28;20465;-70
2022/04/05 01:52:16;;;;;;;3.63;2.30;;;16.60;62.50;;;;;;5034079;28;20032;-70
2022/04/05 01:54:42;;;;;;;4.32;2.28;;;16.60;62.60;;;;;;5033758;28;20026;-69
2022/04/05 01:57:08;;;;;;;3.33;2.15;;;16.60;62.60;;;;;;5033912;28;20523;-70
2022/04/05 01:59:34;;;;;;;4.50;2.70;;;16.60;62.60;;;;;;5034505;28;20538;-70
2022/04/05 02:02:04;;;;;;;3.80;2.40;;;16.60;62.60;;;;;;5034970;28;20091;-69
2022/04/05 02:04:30;;;;;;;5.72;2.38;;;16.60;62.60;;;;;;5033891;28;20049;-69
2022/04/05 02:06:55;;;;;;;4.25;2.05;;;16.60;62.60;;;;;;5034642;28;20506;-69
2022/04/05 02:09:21;;;;;;;3.60;2.03;;;16.60;62.60;;;;;;5033693;28;20113;-69
2022/04/05 02:11:47;;;;;;;5.38;2.22;;;16.60;62.60;;;;;;5024211;28;20036;-69
2022/04/05 02:14:13;;;;;;;5.78;2.58;;;16.60;62.70;;;;;;5013832;28;20025;-69
2022/04/05 02:16:39;;;;;;;2.80;2.20;;;16.60;62.70;;;;;;5013558;28;20473;-69
2022/04/05 02:19:05;;;;;;;2.95;1.80;;;16.60;62.70;;;;;;5013761;28;20076;-69
2022/04/05 02:21:30;;;;;;;4.45;2.25;;;16.60;62.70;;;;;;5014191;28;20492;-69
2022/04/05 02:23:56;;;;;;;4.00;2.13;;;16.60;62.70;;;;;;5014694;28;20022;-69
2022/04/05 02:26:22;;;;;;;2.90;1.83;;;16.60;62.70;;;;;;5014908;28;20037;-69
2022/04/05 02:28:48;;;;;;;4.30;2.08;;;16.60;62.70;;;;;;5014483;28;20028;-69
2022/04/05 02:31:14;;;;;;;3.42;2.15;;;16.60;62.70;;;;;;5014670;28;20026;-69
2022/04/05 02:33:40;;;;;;;3.22;2.30;;;16.60;62.70;;;;;;5014480;28;20032;-69
2022/04/05 02:36:05;;;;;;;4.57;2.42;;;16.60;62.70;;;;;;5014537;28;20029;-69
2022/04/05 02:38:31;;;;;;;3.42;2.10;;;16.60;62.70;;;;;;5013473;28;20029;-69
2022/04/05 02:40:57;;;;;;;3.55;2.20;;;16.60;62.80;;;;;;5013128;28;20424;-69
2022/04/05 02:43:23;;;;;;;2.28;2.08;;;16.50;62.70;;;;;;5013240;28;20080;-69
2022/04/05 02:45:49;;;;;;;8.45;1.92;;;16.50;62.80;;;;;;5014120;28;20046;-69
2022/04/05 02:48:16;;;;;;;5.72;2.42;;;16.50;62.80;;;;;;5014186;28;20024;-69
2022/04/05 02:50:41;;;;;;;3.83;2.25;;;16.50;62.80;;;;;;5013126;28;20436;-69
2022/04/05 02:53:07;;;;;;;3.65;2.03;;;16.60;62.90;;;;;;5013174;28;20026;-69
2022/04/05 02:55:33;;;;;;;4.63;2.40;;;16.50;62.80;;;;;;5014348;28;20022;-69
2022/04/05 02:57:58;;;;;;;2.45;2.08;;;16.60;62.80;;;;;;5013956;28;20026;-69
2022/04/05 03:00:24;;;;;;;3.83;2.03;;;16.50;62.80;;;;;;5028721;28;20108;-69
2022/04/05 03:02:50;;;;;;;3.53;2.45;;;16.50;62.80;;;;;;5033810;28;20026;-69
2022/04/05 03:05:18;;;;;;;4.03;2.15;;;16.50;62.90;;;;;;5033697;28;20053;-69
2022/04/05 03:07:43;;;;;;;3.78;2.10;;;16.60;62.90;;;;;;5032474;28;20024;-69
2022/04/05 03:10:10;;;;;;;3.50;2.13;;;16.50;62.80;;;;;;5033501;28;20109;-69
2022/04/05 03:12:36;;;;;;;3.63;1.90;;;16.50;62.80;;;;;;5015214;28;20488;-69
2022/04/05 03:15:07;;;;;;;4.53;2.03;;;16.50;62.90;;;;;;5012831;28;20028;-69
2022/04/05 03:17:34;;;;;;;4.17;2.03;;;16.50;62.90;;;;;;5012633;28;20026;-69
2022/04/05 03:20:00;;;;;;;3.90;2.22;;;16.50;62.90;;;;;;5013790;28;20056;-69
2022/04/05 03:22:26;;;;;;;4.03;2.03;;;16.50;63.00;;;;;;5013457;28;20097;-69
2022/04/05 03:24:52;;;;;;;3.25;2.40;;;16.50;63.00;;;;;;5012637;28;20574;-69
2022/04/05 03:27:17;;;;;;;2.85;1.80;;;16.50;63.00;;;;;;5012401;28;20408;-69
2022/04/05 03:29:43;;;;;;;3.40;1.98;;;16.50;63.00;;;;;;5013790;28;20033;-69
2022/04/05 03:32:11;;;;;;;3.30;2.00;;;16.50;63.00;;;;;;5013346;28;20112;-69
2022/04/05 03:34:37;;;;;;;2.45;1.90;;;16.50;63.00;;;;;;5012616;28;20025;-69
2022/04/05 03:37:03;;;;;;;3.20;2.13;;;16.50;63.00;;;;;;5012169;28;20022;-69
2022/04/05 03:39:29;;;;;;;2.90;1.98;;;16.50;63.00;;;;;;5013489;28;20022;-69
2022/04/05 03:41:54;;;;;;;3.28;2.00;;;16.50;63.00;;;;;;5013039;28;20481;-69
2022/04/05 03:44:20;;;;;;;3.17;2.20;;;16.50;63.00;;;;;;5013163;28;20046;-69
2022/04/05 03:46:47;;;;;;;5.00;2.03;;;16.50;63.00;;;;;;5013346;28;20034;-69
2022/04/05 03:49:13;;;;;;;3.85;1.95;;;16.50;63.00;;;;;;5013149;28;20110;-69
2022/04/05 03:51:38;;;;;;;4.53;1.90;;;16.50;63.00;;;;;;5012067;28;20116;-69
2022/04/05 03:54:04;;;;;;;3.00;1.85;;;16.50;63.00;;;;;;5013202;28;20097;-69
2022/04/05 03:56:29;;;;;;;3.13;1.67;;;16.50;63.10;;;;;;5013087;28;20054;-69
2022/04/05 03:58:55;;;;;;;3.10;2.00;;;16.50;63.10;;;;;;5015369;28;20105;-69
2022/04/05 04:01:21;;;;;;;6.00;2.20;;;16.40;63.00;;;;;;5032598;28;20052;-69
2022/04/05 04:03:47;;;;;;;5.47;2.20;;;16.40;63.00;;;;;;5031582;28;20018;-69
2022/04/05 04:06:12;;;;;;;4.10;1.77;;;16.40;63.00;;;;;;5032635;28;20029;-69
2022/04/05 04:08:38;;;;;;;5.75;2.00;;;16.40;63.00;;;;;;5032804;28;20037;-69
2022/04/05 04:11:03;;;;;;;2.55;1.90;;;16.40;63.00;;;;;;5027901;28;20109;-69
2022/04/05 04:13:29;;;;;;;2.53;1.98;;;16.40;63.00;;;;;;5012903;28;20101;-69
2022/04/05 04:15:56;;;;;;;2.35;1.75;;;16.40;63.00;;;;;;5011794;28;20029;-69
2022/04/05 04:18:21;;;;;;;4.13;2.10;;;16.40;63.00;;;;;;5012898;28;20587;-69
2022/04/05 04:20:48;;;;;;;3.38;2.35;;;16.40;63.00;;;;;;5011569;28;20116;-69
2022/04/05 04:23:14;;;;;;;2.88;1.92;;;16.40;63.10;;;;;;5012656;28;20022;-69
2022/04/05 04:25:40;;;;;;;3.15;1.38;;;16.40;63.10;;;;;;5011461;28;20455;-69
2022/04/05 04:28:06;;;;;;;2.53;1.65;;;16.40;63.10;;;;;;5012535;28;20018;-69
2022/04/05 04:30:36;;;;;;;2.15;1.60;;;16.40;63.10;;;;;;5011266;28;20030;-69
2022/04/05 04:33:02;;;;;;;3.03;2.33;;;16.40;63.10;;;;;;5011348;28;20097;-69
2022/04/05 04:35:28;;;;;;;2.63;1.90;;;16.40;63.10;;;;;;5011591;28;20097;-69
2022/04/05 04:37:53;;;;;;;2.50;1.67;;;16.40;63.10;;;;;;5011358;28;20069;-70
2022/04/05 04:40:19;;;;;;;3.05;1.90;;;16.40;63.10;;;;;;5011488;28;20073;-70
2022/04/05 04:42:45;;;;;;;3.97;2.20;;;16.40;63.20;;;;;;5011285;28;20018;-70
2022/04/05 04:45:11;;;;;;;4.85;1.75;;;16.40;63.10;;;;;;5013257;28;20052;-69
2022/04/05 04:47:37;;;;;;;3.10;1.65;;;16.40;63.10;;;;;;5015373;28;20025;-70
2022/04/05 04:50:03;;;;;;;2.55;1.67;;;16.40;63.10;;;;;;5016656;28;20036;-70
2022/04/05 04:52:28;;;;;;;3.28;1.70;;;16.30;63.10;;;;;;5015119;28;20026;-70
2022/04/05 04:54:54;;;;;;;4.65;1.52;;;16.40;63.20;;;;;;5016452;28;20053;-69
2022/04/05 04:57:21;;;;;;;3.22;1.65;;;16.40;63.20;;;;;;5016404;28;20533;-69
2022/04/05 04:59:47;;;;;;;2.58;1.65;;;16.30;63.10;;;;;;5025725;28;20021;-70
2022/04/05 05:02:13;;;;;;;3.15;2.05;;;16.30;63.10;;;;;;5034904;28;20021;-69
2022/04/05 05:04:38;;;;;;;2.92;1.77;;;16.30;63.10;;;;;;5034991;28;20029;-69
2022/04/05 05:07:04;;;;;;;4.55;1.90;;;16.30;63.10;;;;;;5035697;28;20037;-69
2022/04/05 05:09:30;;;;;;;3.33;1.60;;;16.30;63.10;;;;;;5034782;28;20033;-69
2022/04/05 05:11:56;;;;;;;2.55;1.80;;;16.30;63.10;;;;;;5024349;28;20033;-69
2022/04/05 05:14:21;;;;;;;2.15;1.88;;;16.30;63.20;;;;;;5014845;28;20032;-69
2022/04/05 05:16:47;;;;;;;4.72;2.20;;;16.30;63.20;;;;;;5014826;28;20026;-69
2022/04/05 05:19:12;;;;;;;2.50;1.58;;;16.30;63.20;;;;;;5015999;28;20034;-70
2022/04/05 05:21:38;;;;;;;3.80;2.00;;;16.30;63.20;;;;;;5015684;28;20037;-70
2022/04/05 05:24:04;;;;;;;3.00;1.60;;;16.30;63.20;;;;;;5015693;28;20022;-70
2022/04/05 05:26:30;;;;;;;4.22;1.90;;;16.30;63.20;;;;;;5014457;28;20037;-70
2022/04/05 05:28:55;;;;;;;2.92;1.80;;;16.30;63.20;;;;;;5014112;28;20041;-69
2022/04/05 05:31:21;;;;;;;3.88;1.60;;;16.30;63.30;;;;;;5013831;28;20029;-70
2022/04/05 05:33:47;;;;;;;1.75;1.60;;;16.30;63.20;;;;;;5014996;28;20373;-70
2022/04/05 05:36:12;;;;;;;2.08;1.70;;;16.30;63.20;;;;;;5014674;28;20018;-70
2022/04/05 05:38:38;;;;;;;6.70;1.92;;;16.30;63.20;;;;;;5015039;28;20028;-70
2022/04/05 05:41:04;;;;;;;4.78;1.80;;;16.20;63.20;;;;;;5014687;28;20026;-70
2022/04/05 05:43:29;;;;;;;3.35;1.50;;;16.30;63.20;;;;;;5015102;28;20030;-70
2022/04/05 05:45:55;;;;;;;4.80;1.63;;;16.30;63.30;;;;;;5014036;28;20050;-70
2022/04/05 05:48:21;;;;;;;3.40;1.60;;;16.30;63.30;;;;;;5015460;28;20109;-70
2022/04/05 05:50:47;;;;;;;3.75;2.03;;;16.30;63.30;;;;;;5014015;28;20515;-69
2022/04/05 05:53:12;;;;;;;4.18;1.90;;;16.30;63.40;;;;;;5015533;28;20025;-70
2022/04/05 05:55:38;;;;;;;2.35;1.75;;;16.20;63.30;;;;;;5014324;28;20022;-70
2022/04/05 05:58:04;;;;;;;4.22;1.60;;;16.20;63.30;;;;;;5013341;28;20014;-70
2022/04/05 06:00:29;;;;;;;3.35;1.45;;;16.30;63.40;;;;;;5029426;28;20025;-70
2022/04/05 06:02:58;;;;;;;3.28;1.70;;;16.30;63.40;;;;;;5033915;28;20052;-70
2022/04/05 06:05:24;;;;;;;4.30;2.10;;;16.20;63.30;;;;;;5033563;28;20025;-70
2022/04/05 06:07:49;;;;;;;2.25;1.50;;;16.30;63.50;;;;;;5033897;28;20049;-70
2022/04/05 06:10:15;;;;;;;5.05;1.65;;;16.30;63.50;;;;;;5033630;28;20395;-70
2022/04/05 06:12:42;;;;;;;4.50;1.73;;;16.30;63.40;;;;;;5016278;28;20503;-70
2022/04/05 06:15:09;;;;;;;3.15;1.95;;;16.30;63.40;;;;;;5013779;28;20489;-69
2022/04/05 06:17:40;;;;;;;4.15;1.73;;;16.30;63.50;;;;;;5015312;28;20028;-69
2022/04/05 06:20:06;;;;;;;3.13;1.92;;;16.30;63.50;;;;;;5018046;28;20090;-70
2022/04/05 06:22:42;;;;;;;5.82;1.75;;;16.20;63.40;;;;;;5033203;28;20033;-70
2022/04/05 06:25:09;;;;;;;3.47;1.73;;;16.30;63.50;;;;;;5034600;28;20026;-70
2022/04/05 06:27:35;;;;;;;4.97;1.58;;;16.30;63.50;;;;;;5033547;28;20475;-69
2022/04/05 06:30:01;;;;;;;3.25;1.95;;;16.30;63.50;;;;;;5034742;28;20018;-70
2022/04/05 06:32:27;;;;;;;3.03;1.80;;;16.20;63.50;;;;;;5033348;28;20377;-69
2022/04/05 06:34:52;;;;;;;5.07;1.77;;;16.30;63.50;;;;;;5034258;28;20028;-70
2022/04/05 06:37:18;;;;;;;6.20;1.92;;;16.20;63.50;;;;;;5034492;28;20072;-70
2022/04/05 06:39:44;;;;;;;5.03;2.40;;;16.20;63.50;;;;;;5034464;28;20029;-70
2022/04/05 06:42:09;;;;;;;4.95;1.90;;;16.20;63.50;;;;;;5034402;28;20403;-69
2022/04/05 06:44:35;;;;;;;4.95;1.85;;;16.20;63.50;;;;;;5032897;28;20045;-69
2022/04/05 06:47:00;;;;;;;6.22;1.95;;;16.20;63.50;;;;;;5034402;28;20091;-69
2022/04/05 06:49:26;;;;;;;4.38;1.67;;;16.20;63.50;;;;;;5033895;28;20542;-69
2022/04/05 06:51:52;;;;;;;4.22;1.58;;;16.20;63.50;;;;;;5034222;28;20033;-69
2022/04/05 06:54:17;;;;;;;3.55;1.92;;;16.20;63.50;;;;;;5034145;28;20018;-70
2022/04/05 06:56:43;;;;;;;3.65;1.60;;;16.20;63.50;;;;;;5034249;28;20030;-70
2022/04/05 06:59:08;;;;;;;2.03;1.48;;;16.20;63.50;;;;;;5033951;28;20029;-69
2022/04/05 07:01:35;;;;;;;5.43;2.00;;;16.20;63.60;;;;;;5033893;28;20029;-70
2022/04/05 07:04:03;;;;;;;3.47;1.52;;;16.20;63.60;;;;;;5033924;28;20384;-69
2022/04/05 07:06:28;;;;;;;3.33;1.63;;;16.20;63.60;;;;;;5033813;28;20021;-70
2022/04/05 07:08:54;;;;;;;5.25;1.40;;;16.20;63.60;;;;;;5033665;28;20392;-69
2022/04/05 07:11:20;;;;;;;4.18;1.90;;;16.20;63.60;;;;;;5025802;28;20033;-70
2022/04/05 07:13:45;;;;;;;4.28;1.48;;;16.20;63.60;;;;;;5014008;28;20160;-70
2022/04/05 07:16:11;;;;;;;3.53;1.60;;;16.20;63.60;;;;;;5013900;28;20022;-69
2022/04/05 07:18:36;;;;;;;4.07;1.42;;;16.20;63.70;;;;;;5013863;28;20380;-69
2022/04/05 07:21:02;;;;;;;4.15;1.70;;;16.20;63.60;;;;;;5013582;28;20036;-70
2022/04/05 07:23:28;;;;;;;6.07;1.70;;;16.20;63.60;;;;;;5013737;28;20029;-69
2022/04/05 07:25:54;;;;;;;3.38;1.63;;;16.20;63.70;;;;;;5013861;28;20029;-69
2022/04/05 07:28:19;;;;;;;5.20;1.65;;;16.20;63.70;;;;;;5013689;28;20109;-69
2022/04/05 07:30:45;;;;;;;6.72;1.35;;;16.20;63.70;;;;;;5013684;28;20032;-69
2022/04/05 07:33:11;;;;;;;4.45;1.85;;;16.20;63.70;;;;;;5013489;28;20022;-69
2022/04/05 07:35:36;;;;;;;5.82;1.83;;;16.20;63.70;;;;;;5013661;28;20034;-71
2022/04/05 07:38:02;;;;;;;4.55;1.70;;;16.20;63.70;;;;;;5013673;28;20018;-71
2022/04/05 07:40:47;;;;;;;4.03;1.90;;;16.20;63.70;;;;;;5013470;28;20465;-71
2022/04/05 07:43:18;;;;;;;2.33;1.42;;;16.20;63.60;;;;;;5009817;28;20010;-72
2022/04/05 07:45:44;;;;;;;2.17;1.35;;;16.10;63.50;;;;;;5013281;28;20096;-73
2022/04/05 07:48:10;;;;;;;1.98;1.10;;;16.10;63.50;;;;;;5011847;28;20092;-72
2022/04/05 07:50:36;;;;;;;3.00;1.27;;;16.10;63.50;;;;;;5012041;28;20091;-71
2022/04/05 07:53:02;;;;;;;2.30;1.38;;;16.10;63.50;;;;;;5012136;28;20416;-73
2022/04/05 07:55:28;;;;;;;3.53;1.30;;;16.10;63.40;;;;;;5012007;28;20018;-70
2022/04/05 07:57:54;;;;;;;2.30;1.30;;;16.10;63.40;;;;;;5023862;28;20049;-71
2022/04/05 08:00:20;;;;;;;4.85;1.48;;;16.10;63.40;;;;;;5031535;28;20064;-73
2022/04/05 08:02:46;;;;;;;4.22;1.27;;;16.00;63.30;;;;;;5032936;28;20078;-71
2022/04/05 08:05:12;;;;;;;2.85;1.48;;;16.00;63.30;;;;;;5031753;28;20484;-72
2022/04/05 08:07:38;;;;;;;3.28;1.38;;;16.00;63.30;;;;;;5032693;28;20022;-71
2022/04/05 08:10:04;;;;;;;2.13;1.13;;;16.00;63.30;;;;;;5032813;28;20159;-73
2022/04/05 08:12:42;;;;;;;2.85;1.45;;;16.00;63.30;;;;;;5032391;28;20057;-72
2022/04/05 08:15:08;;;;;;;4.78;1.35;;;16.00;63.20;;;;;;5031709;28;20506;-73
2022/04/05 08:17:34;;;;;;;4.80;1.58;;;16.00;63.30;;;;;;5031456;28;20013;-71
2022/04/05 08:20:00;;;;;;;3.65;1.30;;;16.00;63.20;;;;;;5031506;28;20033;-71
2022/04/05 08:22:25;;;;;;;1.65;1.13;;;16.00;63.30;;;;;;5031592;28;20443;-71
2022/04/05 08:24:51;;;;;;;4.30;1.27;;;16.00;63.20;;;;;;5031962;28;20029;-71
2022/04/05 08:27:17;;;;;;;3.15;1.30;;;15.90;63.10;;;;;;5031704;28;20029;-71
2022/04/05 08:29:42;;;;;;;4.85;1.42;;;16.00;63.20;;;;;;5031815;28;20041;-71
2022/04/05 08:32:08;;;;;;;2.42;1.60;;;16.00;63.20;;;;;;5031297;28;20026;-70
2022/04/05 08:34:35;;;;;;;4.28;1.73;;;15.90;63.10;;;;;;5030535;28;20057;-71
2022/04/05 08:37:01;;;;;;;3.35;1.63;;;15.90;63.10;;;;;;5031610;28;20044;-69
2022/04/05 08:39:28;;;;;;;2.90;1.10;;;15.90;63.10;;;;;;5030288;28;20031;-69
2022/04/05 08:41:55;;;;;;;4.13;1.20;;;15.90;63.10;;;;;;5031497;28;20029;-70
2022/04/05 08:44:21;;;;;;;2.40;1.00;;;15.90;63.00;;;;;;5030906;28;20063;-70
2022/04/05 08:46:47;;;;;;;1.70;1.10;;;15.90;63.00;;;;;;5014052;28;20097;-70
2022/04/05 08:49:13;;;;;;;1.55;1.10;;;15.90;63.00;;;;;;5013884;28;20109;-70
2022/04/05 08:51:39;;;;;;;2.20;1.20;;;15.90;63.00;;;;;;5013611;28;20029;-70
2022/04/05 08:54:04;;;;;;;2.20;0.98;;;15.90;63.00;;;;;;5031544;28;20021;-69
2022/04/05 08:56:30;;;;;;;2.50;1.23;;;15.90;63.00;;;;;;5013899;28;20029;-71
2022/04/05 08:58:56;;;;;;;3.88;1.20;;;15.90;63.00;;;;;;5031209;28;20030;-71
2022/04/05 09:01:23;;;;;;;2.40;1.23;;;15.90;63.00;;;;;;5031592;28;20064;-71
2022/04/05 09:03:49;;;;;;;3.00;1.08;;;15.80;62.90;;;;;;5030204;28;20064;-71
2022/04/05 09:06:25;;;;;;;2.97;1.23;;;15.80;62.90;;;;;;5030059;28;20025;-72
2022/04/05 09:08:51;;;;;;;3.15;1.20;;;15.90;62.80;;;;;;5031127;28;20029;-72
2022/04/05 09:11:20;;;;;;;2.65;1.10;;;15.80;63.90;;;;;;5030111;28;20454;-73
2022/04/05 09:13:57;;;;;;;3.00;1.15;;;15.80;62.90;;;;;;5030641;28;20033;-74
2022/04/05 09:16:28;;;;;;;3.75;1.48;;;15.80;62.70;;;;;;5031831;28;20049;-75
2022/04/05 09:18:53;;;;;;;2.53;1.00;;;15.80;62.90;;;;;;5031856;28;20098;-75
2022/04/05 09:21:19;;;;;;;2.10;1.17;;;15.80;62.90;;;;;;5030790;28;20487;-73
2022/04/05 09:23:45;;;;;;;3.60;1.10;;;15.80;62.90;;;;;;5032047;28;20455;-74
2022/04/05 09:26:15;;;;;;;3.17;1.30;;;15.80;62.90;;;;;;5031997;28;20395;-73
2022/04/05 09:28:43;;;;;;;2.67;1.27;;;15.80;62.80;;;;;;5014578;28;20021;-74
2022/04/05 09:31:10;;;;;;;3.22;1.10;;;15.80;62.80;;;;;;5030740;28;20024;-74
2022/04/05 09:33:39;;;;;;;3.08;1.10;;;15.80;62.80;;;;;;5033579;28;20403;-74
2022/04/05 09:36:16;;;;;;;1.65;1.00;;;15.80;62.80;;;;;;5035629;28;20040;-72
2022/04/05 09:38:44;;;;;;;2.35;1.00;;;15.80;62.70;;;;;;5035613;28;20061;-72
2022/04/05 09:41:21;;;;;;;2.28;1.17;;;15.80;62.70;;;;;;5034323;28;20472;-71
2022/04/05 09:43:58;;;;;;;2.60;1.27;;;15.80;62.60;;;;;;5033681;28;20025;-72
2022/04/05 09:46:23;;;;;;;2.45;1.17;;;15.80;62.70;;;;;;5034383;28;20123;-72
2022/04/05 09:49:10;;;;;;;3.10;1.20;;;15.80;62.70;;;;;;5034351;28;20185;-70
2022/04/05 09:51:45;;;;;;;3.65;1.38;;;15.80;62.70;;;;;;5033904;28;20036;-69
2022/04/05 09:54:18;;;;;;;1.67;1.02;;;15.80;62.70;;;;;;5033935;28;20499;-69
2022/04/05 09:56:44;;;;;;;2.17;1.15;;;15.70;62.70;;;;;;5035150;28;20087;-69
2022/04/05 09:59:18;;;;;;;1.77;1.05;;;15.70;62.70;;;;;;5034796;28;20056;-69
2022/04/05 10:01:45;;;;;;;2.60;1.05;;;15.70;62.70;;;;;;5033883;28;20284;-70
2022/04/05 10:04:15;;;;;;;4.40;1.45;;;15.70;62.70;;;;;;5033933;28;20029;-69
2022/04/05 10:06:44;;;;;;;4.80;1.33;;;15.70;62.70;;;;;;5034891;28;20018;-69
2022/04/05 10:09:10;;;;;;;2.78;1.27;;;15.70;62.60;;;;;;5035150;28;20033;-69
2022/04/05 10:11:37;;;;;;;1.95;1.10;;;15.70;62.60;;;;;;5024868;28;20561;-69
2022/04/05 10:14:03;;;;;;;1.70;0.90;;;15.70;62.60;;;;;;5015246;28;20053;-69
2022/04/05 10:16:29;;;;;;;3.90;1.20;;;15.70;62.70;;;;;;5013626;28;20057;-70
2022/04/05 10:18:59;;;;;;;4.55;1.67;;;15.70;62.60;;;;;;5013779;28;20026;-73
2022/04/05 10:21:29;;;;;;;3.10;1.35;;;15.70;62.50;;;;;;5014920;28;20022;-71
2022/04/05 10:23:55;;;;;;;1.50;0.88;;;15.70;62.50;;;;;;5013947;28;20108;-71
2022/04/05 10:26:24;;;;;;;4.07;1.20;;;15.70;62.60;;;;;;5013652;28;20026;-72
2022/04/05 10:28:50;;;;;;;2.20;1.30;;;15.70;62.50;;;;;;5013386;28;20036;-72
2022/04/05 10:31:45;;;;;;;3.83;1.30;;;15.60;62.50;;;;;;5014834;28;20030;-72
2022/04/05 10:34:24;;;;;;;4.55;1.20;;;15.70;62.50;;;;;;5013470;28;20376;-72
2022/04/05 10:37:21;;;;;;;3.08;1.25;;;15.70;62.50;;;;;;5013585;28;20018;-73
2022/04/05 10:39:56;;;;;;;3.15;1.10;;;15.70;62.40;;;;;;5013614;28;20022;-72
2022/04/05 10:42:23;;;;;;;2.88;1.10;;;15.60;62.50;;;;;;5014069;28;20033;-72
2022/04/05 10:45:07;;;;;;;2.67;1.52;;;15.60;62.50;;;;;;5013020;28;20057;-72
2022/04/05 10:47:33;;;;;;;5.57;1.20;;;15.60;62.50;;;;;;5013484;28;20025;-72
2022/04/05 10:50:00;;;;;;;4.03;1.00;;;15.60;62.50;;;;;;5014408;28;20101;-72
2022/04/05 10:52:27;;;;;;;2.60;1.10;;;15.60;62.50;;;;;;4996915;28;20415;-71
2022/04/05 10:55:03;;;;;;;1.90;0.88;;;15.60;62.50;;;;;;5012946;28;20018;-72
2022/04/05 10:57:35;;;;;;;2.90;1.25;;;15.60;62.40;;;;;;5014195;28;20053;-71
2022/04/05 11:00:14;;;;;;;38.50;28.58;;;15.60;62.50;;;;;;5024332;28;20487;-71
2022/04/05 11:02:47;;;;;;;82.55;58.40;;;15.60;62.50;;;;;;5032771;28;20557;-72
2022/04/05 11:05:18;;;;;;;87.30;60.42;;;15.60;62.50;;;;;;5034035;28;20033;-72
2022/04/05 11:07:59;;;;;;;89.55;61.30;;;15.60;62.50;;;;;;5033771;28;20605;-72
2022/04/05 11:10:38;;;;;;;82.40;61.15;;;15.60;62.30;;;;;;5033451;28;20033;-72
2022/04/05 11:13:18;;;;;;;79.72;58.50;;;15.60;62.50;;;;;;5013919;28;20029;-72
2022/04/05 11:15:46;;;;;;;87.38;59.67;;;15.60;62.50;;;;;;5014001;28;20014;-72
2022/04/05 11:18:15;;;;;;;83.03;59.13;;;15.60;62.50;;;;;;5013795;28;20062;-72
2022/04/05 11:20:41;;;;;;;82.20;60.97;;;15.60;62.50;;;;;;5012660;28;20061;-72
2022/04/05 11:23:08;;;;;;;82.78;60.42;;;15.60;62.50;;;;;;5012654;28;20034;-72
2022/04/05 11:25:33;;;;;;;81.97;59.97;;;15.60;62.50;;;;;;5012133;28;20029;-71
2022/04/05 11:28:16;;;;;;;79.25;58.45;;;15.60;62.50;;;;;;5012690;28;20018;-72
2022/04/05 11:30:58;;;;;;;81.03;58.28;;;15.70;62.40;;;;;;5013731;28;20088;-72
2022/04/05 11:33:29;;;;;;;82.82;58.35;;;15.60;62.50;;;;;;5012622;28;20030;-72
2022/04/05 11:36:02;;;;;;;80.88;58.75;;;15.60;62.60;;;;;;5013776;28;20026;-69
2022/04/05 11:38:30;;;;;;;82.85;58.03;;;15.60;62.50;;;;;;5013278;28;20080;-74
2022/04/05 11:41:00;;;;;;;86.75;58.35;;;15.60;62.50;;;;;;5012125;28;20037;-72
2022/04/05 11:43:41;;;;;;;88.80;56.50;;;15.60;62.60;;;;;;5025344;28;20025;-72
2022/04/05 11:46:11;;;;;;;82.55;54.75;;;15.70;62.80;;;;;;5032810;28;20136;-72
2022/04/05 11:48:45;;;;;;;95.13;56.60;;;15.70;62.80;;;;;;5031129;28;20488;-72
2022/04/05 11:51:14;;;;;;;78.72;53.30;;;15.70;62.90;;;;;;5030643;28;20033;-72
2022/04/05 11:53:40;;;;;;;87.18;53.80;;;15.70;63.00;;;;;;5030818;28;20041;-73
2022/04/05 11:56:12;;;;;;;85.63;52.25;;;15.70;63.10;;;;;;5030576;28;20046;-72
2022/04/05 11:58:47;;;;;;;82.10;53.53;;;15.80;63.10;;;;;;5031773;28;20017;-73
2022/04/05 12:01:15;;;;;;;82.95;52.78;;;15.80;63.20;;;;;;5031165;28;20033;-72
2022/04/05 12:03:49;;;;;;;79.85;53.03;;;15.80;63.20;;;;;;5031069;28;20083;-72
2022/04/05 12:06:27;;;;;;;75.97;50.65;;;15.80;63.20;;;;;;5032236;28;20431;-72
2022/04/05 12:08:53;;;;;;;74.63;49.90;;;15.80;63.20;;;;;;5031345;28;20088;-73
2022/04/05 12:11:21;;;;;;;77.95;48.95;;;15.70;63.20;;;;;;5025229;28;20072;-72
2022/04/05 12:13:58;;;;;;;76.85;50.47;;;15.80;63.30;;;;;;5011782;28;20080;-73
2022/04/05 12:16:26;;;;;;;76.65;50.00;;;15.80;63.30;;;;;;5012906;28;20503;-72
2022/04/05 12:18:52;;;;;;;76.25;50.25;;;15.80;63.30;;;;;;5011687;28;20014;-72
2022/04/05 12:21:18;;;;;;;73.20;48.78;;;15.80;63.30;;;;;;5011696;28;20025;-73
2022/04/05 12:23:44;;;;;;;71.72;49.70;;;15.80;63.30;;;;;;5011387;28;20029;-73
2022/04/05 12:26:24;;;;;;;73.78;48.45;;;15.80;63.40;;;;;;5011663;28;20028;-73
2022/04/05 12:28:54;;;;;;;72.22;46.80;;;15.80;63.40;;;;;;5012827;28;20088;-72
2022/04/05 12:31:26;;;;;;;69.35;46.80;;;15.80;63.30;;;;;;5011690;28;20041;-73
2022/04/05 12:34:13;;;;;;;69.50;45.87;;;15.80;63.40;;;;;;5011534;28;20503;-73
2022/04/05 12:36:45;;;;;;;69.47;45.05;;;15.80;63.40;;;;;;5011401;28;20389;-72
2022/04/05 12:39:20;;;;;;;72.68;44.90;;;15.80;63.50;;;;;;5011740;28;20022;-72
2022/04/05 12:41:47;;;;;;;65.45;45.67;;;15.80;63.50;;;;;;5011294;28;20033;-72
2022/04/05 12:44:14;;;;;;;65.78;43.35;;;15.80;63.50;;;;;;5012393;28;20058;-72